Terminal Aerodrome Forecast
Issued by NWS

Home | Current Version | Previous Version | Text Only | Print | Product List | Glossary On
Versions: 1 2 3 4 5 6 7 8 9 10 11
000
FTAK31 PAFA 060529
TAFAFA
TAF
PAFA 060529Z 0606/0712 12007KT P6SM FEW080 SCT100 BKN150
     FM060900 08005KT P6SM SCT050 BKN100
     FM070000 24008KT P6SM -SHRA BKN050 OVC100=

USA.gov is the U.S. government's official web portal to all federal, state and local government web resources and services.